Time;durP1;ratioP1;P1;durP2;ratioP2;P2;SDS_P1;SDS_P2;PMS_P1;PMS_P2;Temp;Humidity;BMP_temperature;BMP_pressure;BME280_temperature;BME280_humidity;BME280_pressure;Samples;Min_cycle;Max_cycle;Signal;HPM_P1;HPM_P2
2024/03/09 00:00:42;;;;;;;65.20;37.10;;;;;;;1.25;81.14;97291.90;108767;1252;95719;-80
2024/03/09 00:03:30;;;;;;;65.50;35.40;;;;;;;1.22;81.17;97289.73;108787;1252;96003;-81
2024/03/09 00:05:57;;;;;;;73.00;38.50;;;;;;;1.20;81.22;97287.80;108848;1252;103379;-79
2024/03/09 00:08:25;;;;;;;70.20;38.40;;;;;;;1.18;81.29;97283.36;108841;1252;100407;-80
2024/03/09 00:10:53;;;;;;;65.60;36.90;;;;;;;1.19;81.37;97279.76;108800;1252;100058;-79
2024/03/09 00:13:21;;;;;;;67.30;37.30;;;;;;;1.20;81.36;97278.33;108801;1251;95514;-79
2024/03/09 00:15:48;;;;;;;65.30;35.80;;;;;;;1.21;81.27;97280.03;108838;1252;95991;-79
2024/03/09 00:18:17;;;;;;;70.30;39.20;;;;;;;1.20;81.25;97279.96;108809;1252;102756;-80
2024/03/09 00:20:45;;;;;;;70.80;37.30;;;;;;;1.21;81.34;97276.91;108813;1253;100133;-78
2024/03/09 00:23:13;;;;;;;68.50;34.90;;;;;;;1.22;81.33;97276.90;108818;1253;100119;-79
2024/03/09 00:25:41;;;;;;;70.80;37.00;;;;;;;1.22;81.33;97275.49;108794;1251;96425;-80
2024/03/09 00:28:08;;;;;;;66.40;35.80;;;;;;;1.22;81.40;97276.77;108906;1252;97044;-79
2024/03/09 00:30:36;;;;;;;65.50;36.20;;;;;;;1.20;81.39;97281.09;108864;1252;102690;-80
2024/03/09 00:33:06;;;;;;;68.80;36.10;;;;;;;1.17;81.33;97279.96;108877;1251;102215;-79
2024/03/09 00:35:33;;;;;;;70.60;35.80;;;;;;;1.13;81.41;97277.11;108789;1252;100440;-79
2024/03/09 00:38:03;;;;;;;67.70;36.70;;;;;;;1.08;81.46;97275.45;108844;1252;95570;-79
2024/03/09 00:40:31;;;;;;;64.00;34.60;;;;;;;1.05;81.51;97271.35;108809;1253;96020;-79
2024/03/09 00:43:03;;;;;;;64.00;33.00;;;;;;;1.06;81.60;97271.61;108807;1252;103772;-79
2024/03/09 00:45:31;;;;;;;;;;;;;;;1.06;81.61;97270.00;108863;1252;101413;-79
2024/03/09 00:47:59;;;;;;;58.10;32.50;;;;;;;1.02;81.65;97270.91;108774;1253;98553;-80
2024/03/09 00:50:27;;;;;;;64.70;35.60;;;;;;;1.03;81.70;97269.80;108848;1252;95632;-80
2024/03/09 00:52:55;;;;;;;63.90;35.60;;;;;;;1.04;81.74;97266.83;108798;1252;95991;-80
2024/03/09 00:55:23;;;;;;;62.20;33.20;;;;;;;1.05;81.75;97264.14;108837;1253;103717;-80
2024/03/09 00:57:53;;;;;;;65.40;34.80;;;;;;;1.01;81.72;97262.33;108815;1252;101655;-79
2024/03/09 01:00:23;;;;;;;61.30;33.00;;;;;;;0.99;81.82;97260.81;108777;1252;100230;-80
2024/03/09 01:02:51;;;;;;;60.60;33.00;;;;;;;0.99;81.79;97257.46;108830;1252;95526;-79
2024/03/09 01:05:22;;;;;;;59.30;32.00;;;;;;;0.99;81.83;97256.20;108848;1252;97047;-80
2024/03/09 01:07:50;;;;;;;62.50;34.00;;;;;;;0.97;81.74;97254.96;108842;1253;104415;-79
2024/03/09 01:10:18;;;;;;;57.50;32.30;;;;;;;0.96;81.71;97249.30;108859;1251;101496;-79
2024/03/09 01:12:47;;;;;;;62.60;33.60;;;;;;;0.95;81.73;97246.52;108845;1252;98536;-80
2024/03/09 01:15:15;;;;;;;59.00;33.20;;;;;;;0.95;81.82;97241.20;108801;1252;95556;-80
2024/03/09 01:17:42;;;;;;;60.50;32.30;;;;;;;0.95;81.92;97239.81;108827;1252;96071;-80
2024/03/09 01:20:10;;;;;;;62.40;33.00;;;;;;;0.94;81.83;97241.00;108809;1252;102408;-80
2024/03/09 01:22:43;;;;;;;63.80;33.20;;;;;;;0.93;81.87;97240.91;108807;1251;101682;-80
2024/03/09 01:25:11;;;;;;;61.70;34.40;;;;;;;0.93;81.93;97238.57;108812;1253;100152;-80
2024/03/09 01:27:39;;;;;;;63.00;32.10;;;;;;;0.93;81.92;97237.54;108766;1252;95556;-79
2024/03/09 01:30:09;;;;;;;59.10;32.90;;;;;;;0.92;81.94;97231.95;108796;1252;95972;-80
2024/03/09 01:32:40;;;;;;;63.40;32.60;;;;;;;0.91;81.96;97229.73;108734;1252;102697;-80
2024/03/09 01:35:08;;;;;;;59.40;33.10;;;;;;;0.91;82.03;97229.77;108802;1251;101696;-79
2024/03/09 01:37:36;;;;;;;56.40;34.20;;;;;;;0.90;82.02;97229.70;108781;1252;98886;-79
2024/03/09 01:40:04;;;;;;;57.50;32.10;;;;;;;0.91;82.03;97229.97;108730;1253;95633;-79
2024/03/09 01:42:32;;;;;;;49.40;28.30;;;;;;;0.90;82.02;97229.84;108812;1251;96027;-81
2024/03/09 01:45:04;;;;;;;50.80;28.60;;;;;;;0.86;81.92;97232.16;108761;1252;103736;-80
2024/03/09 01:47:32;;;;;;;51.10;30.00;;;;;;;0.83;81.84;97232.89;108826;1252;101612;-79
2024/03/09 01:49:59;;;;;;;48.70;29.10;;;;;;;0.80;81.87;97227.14;108806;1251;100128;-81
2024/03/09 01:52:31;;;;;;;49.50;28.90;;;;;;;0.80;81.88;97224.48;108770;1252;95547;-79
2024/03/09 01:55:00;;;;;;;49.10;28.10;;;;;;;0.81;81.97;97217.88;108776;1252;96027;-80
2024/03/09 01:57:28;;;;;;;49.00;27.90;;;;;;;0.79;81.84;97218.37;108819;1252;103794;-79
2024/03/09 01:59:56;;;;;;;44.60;27.00;;;;;;;0.76;81.78;97218.23;108822;1252;101505;-80
2024/03/09 02:02:24;;;;;;;45.80;27.30;;;;;;;0.74;81.90;97217.45;108842;1253;99551;-79
2024/03/09 02:04:52;;;;;;;44.80;26.60;;;;;;;0.72;81.81;97217.48;108802;1252;95916;-81
2024/03/09 02:07:20;;;;;;;42.60;25.50;;;;;;;0.70;81.81;97215.77;108832;1253;96094;-79
2024/03/09 02:09:49;;;;;;;41.50;24.20;;;;;;;0.68;81.72;97214.20;108800;1253;103809;-79
2024/03/09 02:12:19;;;;;;;46.10;25.70;;;;;;;0.64;81.75;97211.23;108850;1252;100030;-81
2024/03/09 02:14:48;;;;;;;43.30;24.80;;;;;;;0.63;81.86;97208.73;108812;1253;98625;-80
2024/03/09 02:17:15;;;;;;;40.50;23.90;;;;;;;0.62;81.75;97212.38;108839;1253;95848;-79
2024/03/09 02:19:43;;;;;;;39.90;23.70;;;;;;;0.59;81.88;97213.02;108839;1253;96077;-80
2024/03/09 02:22:14;;;;;;;42.40;24.40;;;;;;;0.57;81.84;97216.23;108797;1253;103760;-79
2024/03/09 02:24:42;;;;;;;36.50;22.70;;;;;;;0.54;81.79;97216.86;108839;1252;100511;-79
2024/03/09 02:27:10;;;;;;;38.40;22.90;;;;;;;0.49;81.66;97217.02;108774;1253;100264;-79
2024/03/09 02:29:39;;;;;;;37.60;22.20;;;;;;;0.45;81.58;97215.64;108818;1253;95601;-81
2024/03/09 02:32:07;;;;;;;38.40;22.60;;;;;;;0.42;81.58;97217.90;108874;1251;96004;-81
2024/03/09 02:34:35;;;;;;;37.30;20.70;;;;;;;0.39;81.77;97216.40;108768;1252;103813;-81
2024/03/09 02:37:03;;;;;;;37.00;21.70;;;;;;;0.38;81.86;97213.34;108814;1252;100029;-80
2024/03/09 02:39:32;;;;;;;39.60;22.30;;;;;;;0.36;81.77;97214.73;108829;1252;99834;-80
2024/03/09 02:42:00;;;;;;;38.80;22.70;;;;;;;0.29;81.62;97214.00;108798;1253;95876;-79
2024/03/09 02:44:27;;;;;;;38.40;21.70;;;;;;;0.24;81.68;97211.83;108901;1252;96033;-79
2024/03/09 02:46:55;;;;;;;35.60;22.30;;;;;;;0.21;81.77;97210.42;108803;1253;111490;-81
2024/03/09 02:49:24;;;;;;;38.30;22.60;;;;;;;0.20;81.74;97206.29;108794;1252;110260;-80
2024/03/09 02:51:53;;;;;;;36.20;21.90;;;;;;;0.21;81.84;97206.73;108748;1252;100376;-81
2024/03/09 02:54:20;;;;;;;36.80;22.50;;;;;;;0.19;81.82;97207.77;108810;1253;95574;-80
2024/03/09 02:56:49;;;;;;;36.40;22.50;;;;;;;0.16;81.87;97204.52;108870;1252;96227;-80
2024/03/09 02:59:17;;;;;;;43.10;24.30;;;;;;;0.17;81.93;97206.00;108847;1252;103750;-80
2024/03/09 03:01:46;;;;;;;39.00;24.70;;;;;;;0.16;81.87;97205.98;108792;1253;101585;-80
2024/03/09 03:04:14;;;;;;;42.50;24.00;;;;;;;0.14;81.90;97205.45;108765;1252;100130;-80
2024/03/09 03:06:43;;;;;;;39.40;23.80;;;;;;;0.12;81.91;97204.00;108827;1253;95790;-81
2024/03/09 03:09:15;;;;;;;40.40;22.90;;;;;;;0.11;81.92;97208.59;108802;1252;96111;-80
2024/03/09 03:11:43;;;;;;;41.30;24.70;;;;;;;0.07;81.82;97206.13;108819;1252;103718;-80
2024/03/09 03:14:10;;;;;;;36.80;22.90;;;;;;;0.04;81.84;97200.67;108784;1253;101521;-80
2024/03/09 03:16:38;;;;;;;36.60;21.60;;;;;;;0.03;81.91;97195.13;108812;1252;99900;-80
2024/03/09 03:19:09;;;;;;;39.00;22.80;;;;;;;0.00;81.88;97194.77;108820;1252;95579;-79
2024/03/09 03:21:39;;;;;;;36.40;23.70;;;;;;;-0.01;81.96;97192.06;108857;1252;96230;-79
2024/03/09 03:24:08;;;;;;;36.90;22.70;;;;;;;0.00;82.05;97188.24;108828;1253;102669;-79
2024/03/09 03:26:36;;;;;;;35.60;21.30;;;;;;;0.01;82.09;97188.02;108873;1253;101852;-80
2024/03/09 03:29:04;;;;;;;39.50;23.70;;;;;;;0.02;82.05;97188.81;108815;1253;100203;-79
2024/03/09 03:31:32;;;;;;;35.40;21.30;;;;;;;0.02;82.06;97185.29;108795;1251;95566;-79
2024/03/09 03:34:00;;;;;;;34.10;21.80;;;;;;;-0.04;82.02;97188.27;108843;1253;96514;-80
2024/03/09 03:36:29;;;;;;;33.80;21.30;;;;;;;-0.07;82.01;97185.05;108864;1253;103778;-79
2024/03/09 03:38:57;;;;;;;37.30;22.50;;;;;;;-0.09;81.97;97185.79;108857;1253;101814;-78
2024/03/09 03:41:26;;;;;;;38.70;25.20;;;;;;;-0.10;82.15;97184.84;108779;1253;99966;-80
2024/03/09 03:43:54;;;;;;;35.30;23.00;;;;;;;-0.10;82.19;97182.69;108843;1252;95557;-79
2024/03/09 03:46:22;;;;;;;37.90;22.90;;;;;;;-0.08;82.18;97179.20;108828;1253;95973;-80
2024/03/09 03:48:50;;;;;;;39.50;23.60;;;;;;;-0.07;82.22;97180.64;108881;1252;103622;-80
2024/03/09 03:51:18;;;;;;;39.00;23.70;;;;;;;-0.07;82.22;97175.55;108876;1252;101570;-80
2024/03/09 03:53:46;;;;;;;38.50;22.80;;;;;;;-0.08;82.08;97171.77;108798;1253;98469;-79
2024/03/09 03:56:14;;;;;;;38.50;21.80;;;;;;;-0.10;82.17;97170.48;108764;1253;95584;-79
2024/03/09 03:58:44;;;;;;;41.70;24.00;;;;;;;-0.12;82.18;97169.48;108860;1252;97313;-78
2024/03/09 04:01:11;;;;;;;36.70;23.90;;;;;;;-0.13;82.30;97172.77;108835;1252;103251;-78
2024/03/09 04:03:39;;;;;;;42.70;25.50;;;;;;;-0.14;82.19;97173.27;108868;1252;100091;-79
2024/03/09 04:06:08;;;;;;;41.90;25.80;;;;;;;-0.15;82.22;97179.36;108823;1252;100177;-80
2024/03/09 04:08:36;;;;;;;39.90;23.60;;;;;;;-0.13;82.25;97181.66;108749;1253;95864;-80
2024/03/09 04:11:04;;;;;;;38.50;23.40;;;;;;;-0.12;82.23;97181.13;108862;1252;97121;-80
2024/03/09 04:13:33;;;;;;;40.70;23.60;;;;;;;-0.10;82.18;97179.40;108838;1252;103774;-79
2024/03/09 04:16:02;;;;;;;38.50;23.70;;;;;;;-0.08;82.26;97179.73;108850;1252;101758;-80
2024/03/09 04:18:30;;;;;;;38.10;23.60;;;;;;;-0.09;82.20;97182.05;108812;1252;100165;-79
2024/03/09 04:20:59;;;;;;;37.80;22.00;;;;;;;-0.09;82.17;97180.86;108815;1252;96970;-79
2024/03/09 04:23:26;;;;;;;38.50;22.10;;;;;;;-0.11;82.07;97179.87;108828;1253;96008;-79
2024/03/09 04:25:55;;;;;;;37.00;22.40;;;;;;;-0.13;82.13;97175.78;108771;1252;102577;-80
2024/03/09 04:28:27;;;;;;;37.40;22.40;;;;;;;-0.13;82.14;97175.66;108868;1253;101543;-80
2024/03/09 04:30:56;;;;;;;37.70;22.70;;;;;;;-0.13;82.28;97168.39;108848;1251;100169;-78
2024/03/09 04:33:24;;;;;;;38.10;23.90;;;;;;;-0.12;82.41;97168.59;108840;1252;95992;-79
2024/03/09 04:35:52;;;;;;;38.70;23.50;;;;;;;-0.12;82.36;97171.20;108809;1252;96114;-78
2024/03/09 04:38:20;;;;;;;37.40;23.10;;;;;;;-0.11;82.32;97171.70;108833;1252;103660;-79
2024/03/09 04:40:49;;;;;;;38.20;23.40;;;;;;;-0.10;82.42;97168.95;108834;1253;101434;-79
2024/03/09 04:43:17;;;;;;;38.30;23.80;;;;;;;-0.07;82.43;97172.21;108810;1252;100227;-79
2024/03/09 04:45:45;;;;;;;34.90;20.80;;;;;;;-0.05;82.37;97171.11;108828;1254;95541;-78
2024/03/09 04:48:14;;;;;;;35.20;21.00;;;;;;;-0.07;82.26;97168.94;108861;1252;96098;-79
2024/03/09 04:50:46;;;;;;;38.60;22.90;;;;;;;-0.09;82.20;97167.61;108867;1252;103362;-79
2024/03/09 04:53:13;;;;;;;42.00;25.80;;;;;;;-0.09;82.28;97169.54;108799;1252;109628;-80
2024/03/09 04:55:47;;;;;;;39.70;23.80;;;;;;;-0.09;82.30;97169.90;108798;1256;100154;-80
2024/03/09 04:58:15;;;;;;;43.60;25.50;;;;;;;-0.10;82.31;97171.41;108761;1252;95571;-79
2024/03/09 05:00:44;;;;;;;41.80;24.80;;;;;;;-0.10;82.28;97176.88;108810;1252;96455;-79
2024/03/09 05:03:13;;;;;;;41.30;25.30;;;;;;;-0.12;82.35;97174.78;108835;1253;102143;-79
2024/03/09 05:05:42;;;;;;;42.30;25.10;;;;;;;-0.14;82.40;97175.34;108831;1253;101584;-79
2024/03/09 05:08:10;;;;;;;38.50;23.50;;;;;;;-0.14;82.37;97177.10;108769;1252;100372;-79
2024/03/09 05:10:38;;;;;;;41.10;24.30;;;;;;;-0.15;82.34;97174.96;108852;1252;95593;-79
2024/03/09 05:13:06;;;;;;;37.90;22.80;;;;;;;-0.15;82.36;97172.64;108837;1252;95987;-79
2024/03/09 05:15:34;;;;;;;37.70;22.20;;;;;;;-0.14;82.47;97171.09;108869;1252;103795;-79
2024/03/09 05:18:07;;;;;;;36.30;22.40;;;;;;;-0.13;82.39;97168.92;108809;1254;101632;-78
2024/03/09 05:20:35;;;;;;;36.50;21.90;;;;;;;-0.14;82.27;97166.32;108823;1252;98617;-78
2024/03/09 05:23:03;;;;;;;36.60;21.20;;;;;;;-0.12;82.40;97166.43;108828;1254;95635;-78
2024/03/09 05:25:31;;;;;;;34.50;22.10;;;;;;;-0.11;82.27;97164.81;108854;1252;95590;-78
2024/03/09 05:27:59;;;;;;;35.40;21.60;;;;;;;-0.13;82.14;97167.63;108837;1253;103815;-78
2024/03/09 05:30:28;;;;;;;31.20;19.80;;;;;;;-0.15;82.09;97167.54;108790;1254;100412;-79
2024/03/09 05:32:58;;;;;;;30.80;20.10;;;;;;;-0.20;81.83;97168.92;108861;1252;100206;-79
2024/03/09 05:35:28;;;;;;;32.70;20.40;;;;;;;-0.31;81.64;97167.13;108831;1256;95540;-78
2024/03/09 05:37:58;;;;;;;32.40;20.10;;;;;;;-0.41;81.74;97168.98;108864;1252;95990;-80
2024/03/09 05:40:28;;;;;;;34.30;20.10;;;;;;;-0.47;81.79;97169.90;108829;1253;103860;-77
2024/03/09 05:43:00;;;;;;;33.30;20.60;;;;;;;-0.51;81.76;97171.36;108880;1253;101488;-78
2024/03/09 05:45:28;;;;;;;34.20;21.10;;;;;;;-0.53;81.89;97173.30;108831;1252;98962;-79
2024/03/09 05:47:57;;;;;;;33.90;20.20;;;;;;;-0.51;82.05;97171.92;108840;1251;96978;-78
2024/03/09 05:50:29;;;;;;;32.90;19.80;;;;;;;-0.49;82.14;97168.53;108820;1252;96130;-79
2024/03/09 05:52:59;;;;;;;32.80;19.20;;;;;;;-0.47;82.09;97175.67;108744;1252;103829;-78
2024/03/09 05:55:28;;;;;;;33.30;19.50;;;;;;;-0.46;82.05;97172.43;108847;1252;101400;-78
2024/03/09 05:57:57;;;;;;;35.00;20.30;;;;;;;-0.49;82.03;97174.52;108819;1255;100182;-79
2024/03/09 06:00:31;;;;;;;34.60;21.60;;;;;;;-0.50;82.01;97173.00;108773;1254;95573;-80
2024/03/09 06:03:01;;;;;;;32.50;20.60;;;;;;;-0.49;82.22;97175.89;108824;1252;95962;-79
2024/03/09 06:05:30;;;;;;;37.20;22.80;;;;;;;-0.48;82.27;97174.00;108826;1252;103784;-79
2024/03/09 06:07:58;;;;;;;30.20;19.60;;;;;;;-0.46;82.30;97177.73;108845;1252;101770;-80
2024/03/09 06:10:26;;;;;;;36.40;22.60;;;;;;;-0.43;82.37;97178.48;108823;1253;100368;-79
2024/03/09 06:12:54;;;;;;;31.10;20.20;;;;;;;-0.43;82.36;97177.95;108787;1252;95643;-78
2024/03/09 06:15:24;;;;;;;34.60;21.00;;;;;;;-0.41;82.49;97173.70;108772;1252;96018;-78
2024/03/09 06:17:55;;;;;;;32.60;20.70;;;;;;;-0.36;82.70;97170.76;108702;1253;103587;-78
2024/03/09 06:20:26;;;;;;;34.60;21.20;;;;;;;-0.31;82.73;97166.41;108774;1253;101610;-79
2024/03/09 06:22:56;;;;;;;34.00;20.40;;;;;;;-0.26;82.78;97165.41;108809;1253;99821;-79
2024/03/09 06:25:23;;;;;;;37.10;22.50;;;;;;;-0.21;82.78;97166.89;108835;1253;97378;-78
2024/03/09 06:27:52;;;;;;;37.20;21.90;;;;;;;-0.16;82.82;97164.23;108877;1253;96949;-79
2024/03/09 06:30:21;;;;;;;35.70;21.60;;;;;;;-0.10;82.80;97167.14;108887;1253;103114;-78
2024/03/09 06:32:49;;;;;;;36.80;23.60;;;;;;;-0.03;82.91;97168.75;108835;1253;100296;-79
2024/03/09 06:35:19;;;;;;;38.60;24.50;;;;;;;0.05;82.97;97167.30;108792;1253;100007;-79
2024/03/09 06:38:05;;;;;;;39.50;25.00;;;;;;;0.11;82.88;97161.21;108769;1254;96673;-79
2024/03/09 06:40:44;;;;;;;36.70;23.50;;;;;;;0.16;83.06;97154.84;108874;1252;96026;-79
2024/03/09 06:43:14;;;;;;;37.70;24.20;;;;;;;0.21;82.95;97152.35;108845;1252;103674;-79
2024/03/09 06:45:46;;;;;;;35.60;23.00;;;;;;;0.26;82.87;97152.35;108916;1251;101592;-78
2024/03/09 06:48:14;;;;;;;40.30;24.10;;;;;;;0.30;82.85;97150.09;108794;1253;98926;-78
2024/03/09 06:50:44;;;;;;;46.80;28.40;;;;;;;0.29;82.73;97151.91;108770;1254;95568;-80
2024/03/09 06:53:11;;;;;;;44.60;26.60;;;;;;;0.33;82.67;97152.25;108765;1252;96001;-79
2024/03/09 06:55:39;;;;;;;40.40;25.00;;;;;;;0.35;82.61;97152.53;108780;1252;102578;-80
2024/03/09 06:58:07;;;;;;;41.20;25.80;;;;;;;0.34;82.48;97148.77;108865;1253;108387;-80
2024/03/09 07:00:37;;;;;;;46.20;28.40;;;;;;;0.38;82.58;97156.16;108859;1253;100110;-78
2024/03/09 07:03:05;;;;;;;42.70;28.90;;;;;;;0.47;82.73;97158.65;108868;1251;95666;-80
2024/03/09 07:05:34;;;;;;;44.30;26.90;;;;;;;0.53;82.63;97162.80;108813;1251;95987;-79
2024/03/09 07:08:03;;;;;;;46.40;26.80;;;;;;;0.56;82.45;97165.16;108817;1254;103654;-82
2024/03/09 07:10:32;;;;;;;41.80;23.00;;;;;;;0.61;82.41;97167.61;108832;1252;101617;-79
2024/03/09 07:13:00;;;;;;;42.90;25.80;;;;;;;0.64;82.27;97169.23;108834;1253;100283;-78
2024/03/09 07:15:30;;;;;;;45.40;24.60;;;;;;;0.67;82.27;97166.64;108819;1254;95605;-78
2024/03/09 07:17:58;;;;;;;40.60;24.70;;;;;;;0.69;82.25;97167.66;108778;1256;95941;-81
2024/03/09 07:20:27;;;;;;;40.90;24.50;;;;;;;0.70;82.13;97175.79;108754;1251;103113;-79
2024/03/09 07:22:55;;;;;;;41.60;25.10;;;;;;;0.71;82.17;97177.15;108816;1253;101720;-81
2024/03/09 07:25:25;;;;;;;43.70;24.60;;;;;;;0.78;82.35;97173.88;108858;1252;100340;-81
2024/03/09 07:27:55;;;;;;;40.80;25.50;;;;;;;0.88;82.45;97170.39;108772;1253;95629;-80
2024/03/09 07:30:24;;;;;;;41.90;24.20;;;;;;;0.96;82.45;97169.04;108866;1256;95981;-80
2024/03/09 07:32:53;;;;;;;42.60;24.50;;;;;;;1.01;82.36;97171.46;108832;1254;103320;-81
2024/03/09 07:35:25;;;;;;;43.70;24.80;;;;;;;1.05;82.35;97172.83;108744;1254;101633;-81
2024/03/09 07:37:53;;;;;;;47.00;29.50;;;;;;;1.16;82.47;97173.91;108862;1253;100104;-81
2024/03/09 07:40:24;;;;;;;47.20;27.80;;;;;;;1.24;82.49;97172.48;108794;1253;95963;-79
2024/03/09 07:42:54;;;;;;;41.30;24.40;;;;;;;1.33;82.59;97167.60;108886;1253;97095;-79
2024/03/09 07:45:25;;;;;;;45.10;25.90;;;;;;;1.44;82.57;97167.74;108867;1252;103848;-80
2024/03/09 07:47:53;;;;;;;42.30;25.20;;;;;;;1.54;82.50;97168.13;108783;1253;101499;-79
2024/03/09 07:50:23;;;;;;;42.90;24.30;;;;;;;1.62;82.45;97162.63;108749;1252;100151;-79
2024/03/09 07:52:53;;;;;;;41.80;23.30;;;;;;;1.71;82.42;97164.98;108777;1254;95686;-80
2024/03/09 07:55:23;;;;;;;38.40;23.30;;;;;;;1.82;82.38;97166.21;108790;1254;96026;-81
2024/03/09 07:57:52;;;;;;;41.80;24.30;;;;;;;1.92;82.31;97170.96;108800;1252;103499;-78
2024/03/09 08:00:27;;;;;;;42.70;23.80;;;;;;;2.03;82.29;97166.79;108831;1254;101644;-79
2024/03/09 08:02:56;;;;;;;45.60;25.30;;;;;;;2.14;82.34;97161.94;108832;1254;98782;-80
2024/03/09 08:05:25;;;;;;;43.30;24.30;;;;;;;2.25;82.24;97155.03;108764;1253;96059;-80
2024/03/09 08:07:53;;;;;;;40.60;23.10;;;;;;;2.39;82.16;97151.85;108817;1252;96014;-79
2024/03/09 08:10:24;;;;;;;41.40;24.20;;;;;;;2.54;82.01;97154.41;108792;1254;102686;-79
2024/03/09 08:12:53;;;;;;;42.10;25.10;;;;;;;2.79;82.06;97147.41;108827;1254;101484;-80
2024/03/09 08:15:21;;;;;;;41.60;24.00;;;;;;;3.03;82.01;97143.17;108777;1252;99136;-81
2024/03/09 08:17:49;;;;;;;39.00;22.80;;;;;;;3.29;81.76;97144.73;108799;1254;95604;-79
2024/03/09 08:20:21;;;;;;;37.90;24.10;;;;;;;3.47;81.35;97144.09;108889;1256;96035;-79
2024/03/09 08:22:49;;;;;;;39.00;23.70;;;;;;;3.80;81.40;97139.52;108812;1254;102342;-80
2024/03/09 08:25:18;;;;;;;37.80;22.80;;;;;;;4.25;81.33;97134.32;108850;1253;101346;-81
2024/03/09 08:27:49;;;;;;;37.80;22.90;;;;;;;4.65;80.77;97136.52;108821;1254;100223;-80
2024/03/09 08:30:18;;;;;;;38.50;22.00;;;;;;;5.01;80.19;97134.54;108827;1253;95605;-81
2024/03/09 08:32:47;;;;;;;33.70;22.10;;;;;;;5.30;79.18;97136.00;108821;1253;96046;-80
2024/03/09 08:35:19;;;;;;;31.80;20.70;;;;;;;5.53;78.64;97130.81;108791;1256;103778;-81
2024/03/09 08:37:50;;;;;;;37.20;23.30;;;;;;;5.77;78.22;97133.34;108825;1252;101848;-81
2024/03/09 08:40:20;;;;;;;35.70;21.60;;;;;;;5.98;77.95;97136.42;108760;1253;98948;-80
2024/03/09 08:42:51;;;;;;;33.80;21.80;;;;;;;6.25;77.32;97131.80;108846;1253;95621;-81
2024/03/09 08:45:23;;;;;;;33.40;20.90;;;;;;;6.42;76.47;97128.80;108807;1253;96118;-81
2024/03/09 08:47:52;;;;;;;30.20;20.10;;;;;;;6.60;76.45;97124.09;108817;1256;103569;-81
2024/03/09 08:50:21;;;;;;;31.00;19.80;;;;;;;6.83;76.09;97119.37;108866;1256;101243;-81
2024/03/09 08:52:49;;;;;;;31.30;19.00;;;;;;;7.02;75.57;97112.83;108785;1254;98982;-81
2024/03/09 08:55:18;;;;;;;25.80;17.30;;;;;;;7.19;74.91;97112.89;108784;1253;96140;-82
2024/03/09 08:57:48;;;;;;;26.80;17.70;;;;;;;7.34;74.53;97113.27;108784;1254;96067;-81
2024/03/09 09:00:19;;;;;;;28.60;18.40;;;;;;;7.50;73.58;97109.18;108751;1251;102556;-81
2024/03/09 09:02:47;;;;;;;31.60;20.00;;;;;;;7.65;73.62;97100.86;108772;1256;101628;-81
2024/03/09 09:05:18;;;;;;;29.40;19.00;;;;;;;7.86;73.81;97098.59;108668;1252;100219;-83
2024/03/09 09:07:46;;;;;;;25.90;18.10;;;;;;;8.11;73.73;97098.34;108740;1253;96603;-82
2024/03/09 09:10:15;;;;;;;24.10;17.10;;;;;;;8.36;73.39;97093.35;108871;1255;95990;-82
2024/03/09 09:12:44;;;;;;;27.90;17.70;;;;;;;8.59;72.16;97092.17;108736;1254;103729;-81
2024/03/09 09:15:16;;;;;;;23.30;16.30;;;;;;;8.73;71.61;97087.30;108787;1253;100342;-82
2024/03/09 09:17:44;;;;;;;28.70;18.00;;;;;;;8.96;71.32;97086.33;108769;1253;99531;-81
2024/03/09 09:20:13;;;;;;;25.20;17.00;;;;;;;9.22;70.93;97082.52;108823;1253;95599;-82
2024/03/09 09:22:47;;;;;;;25.00;16.80;;;;;;;9.46;70.38;97082.23;108835;1254;96065;-83
2024/03/09 09:25:16;;;;;;;24.20;17.20;;;;;;;9.64;69.25;97075.96;108878;1254;102675;-82
2024/03/09 09:27:44;;;;;;;25.60;15.30;;;;;;;9.82;69.28;97076.63;108834;1254;100200;-83
2024/03/09 09:30:12;;;;;;;22.30;14.90;;;;;;;10.08;68.57;97070.39;108785;1256;98651;-82
2024/03/09 09:32:40;;;;;;;22.90;14.90;;;;;;;10.35;68.39;97060.55;108817;1255;95953;-82
2024/03/09 09:35:08;;;;;;;20.70;14.80;;;;;;;10.63;67.46;97057.27;108786;1254;95843;-82
2024/03/09 09:37:36;;;;;;;22.60;15.90;;;;;;;10.82;67.10;97049.05;108817;1253;102704;-82
2024/03/09 09:40:06;;;;;;;19.40;14.20;;;;;;;11.01;66.45;97048.26;108737;1252;100239;-82
2024/03/09 09:42:36;;;;;;;18.70;13.20;;;;;;;11.23;65.93;97049.41;108790;1252;98687;-83
2024/03/09 09:45:05;;;;;;;20.40;14.70;;;;;;;11.44;65.32;97050.88;108853;1254;95820;-82
2024/03/09 09:47:37;;;;;;;22.60;13.70;;;;;;;11.65;64.80;97051.59;108847;1252;95580;-82
2024/03/09 09:50:05;;;;;;;19.00;13.40;;;;;;;11.92;64.82;97048.40;108829;1251;102313;-83
2024/03/09 09:52:36;;;;;;;21.30;14.80;;;;;;;12.19;63.58;97048.20;108839;1254;100437;-82
2024/03/09 09:55:04;;;;;;;19.90;14.60;;;;;;;12.35;63.05;97047.38;108801;1254;99078;-82
2024/03/09 09:57:31;;;;;;;20.40;14.10;;;;;;;12.52;62.25;97046.08;108785;1253;95580;-83
2024/03/09 09:59:59;;;;;;;18.90;14.50;;;;;;;12.64;62.06;97042.59;108818;1254;95827;-84
2024/03/09 10:02:27;;;;;;;20.80;15.10;;;;;;;12.76;61.15;97039.78;108674;1254;165525;-83
2024/03/09 10:04:56;;;;;;;23.30;15.90;;;;;;;12.84;60.71;97043.39;108854;1253;99393;-83
2024/03/09 10:07:24;;;;;;;20.20;14.90;;;;;;;12.99;59.14;97046.19;108841;1252;99275;-83
2024/03/09 10:09:52;;;;;;;18.80;13.80;;;;;;;13.02;58.30;97044.04;108801;1254;95709;-83
2024/03/09 10:12:24;;;;;;;19.70;14.60;;;;;;;13.10;59.20;97043.85;108839;1254;95605;-84
2024/03/09 10:14:52;;;;;;;19.90;14.80;;;;;;;13.27;59.14;97041.19;108819;1254;102236;-83
2024/03/09 10:17:20;;;;;;;20.00;14.50;;;;;;;13.46;58.94;97038.45;108808;1251;100281;-83
2024/03/09 10:19:50;;;;;;;13.80;10.40;;;;;;;13.68;57.57;97039.34;108724;1256;100112;-85
2024/03/09 10:22:17;;;;;;;11.80;9.00;;;;;;;13.77;55.68;97036.86;108783;1253;95552;-82
2024/03/09 10:24:56;;;;;;;11.10;8.70;;;;;;;13.75;54.65;97032.61;108868;1254;95639;-83
2024/03/09 10:27:26;;;;;;;14.10;10.40;;;;;;;13.79;54.63;97025.84;108847;1254;102496;-84
2024/03/09 10:30:10;;;;;;;11.40;10.00;;;;;;;13.87;54.95;97027.30;108836;1254;100314;-84
2024/03/09 10:32:39;;;;;;;12.60;10.10;;;;;;;14.09;54.68;97025.95;108795;1252;99324;-83
2024/03/09 10:35:09;;;;;;;12.40;9.50;;;;;;;14.33;54.63;97018.18;108842;1253;95575;-84
2024/03/09 10:37:39;;;;;;;11.40;9.60;;;;;;;14.55;53.64;97012.14;108836;1252;95753;-85
2024/03/09 10:40:12;;;;;;;9.80;8.10;;;;;;;14.63;53.37;97006.99;108724;1257;102610;-83
2024/03/09 10:42:47;;;;;;;11.40;8.80;;;;;;;14.70;52.81;97008.25;108849;1256;100331;-83
2024/03/09 10:45:19;;;;;;;11.00;9.00;;;;;;;14.72;51.74;97006.35;108761;1253;98943;-83
2024/03/09 10:47:52;;;;;;;11.90;9.60;;;;;;;14.85;51.72;97003.32;108808;1253;95658;-84
2024/03/09 10:50:28;;;;;;;12.20;9.60;;;;;;;15.00;51.00;96999.75;108745;1254;96043;-84
2024/03/09 10:53:08;;;;;;;11.70;8.90;;;;;;;15.07;51.49;96996.92;108839;1255;102579;-83
2024/03/09 10:55:56;;;;;;;11.20;9.40;;;;;;;15.05;49.08;96989.82;108814;1253;100109;-83
2024/03/09 10:58:26;;;;;;;11.40;9.40;;;;;;;14.91;49.84;96983.68;108803;1253;99000;-82
2024/03/09 11:00:55;;;;;;;11.80;9.80;;;;;;;15.07;49.79;96983.08;108772;1252;95615;-83
2024/03/09 11:03:23;;;;;;;12.00;10.10;;;;;;;15.33;49.85;96982.99;108747;1253;95545;-83
2024/03/09 11:05:54;;;;;;;12.30;9.80;;;;;;;15.52;49.68;96981.84;108772;1254;102658;-83
2024/03/09 11:08:23;;;;;;;14.50;9.10;;;;;;;15.61;47.47;96978.15;108862;1253;100149;-85
2024/03/09 11:10:52;;;;;;;11.40;9.60;;;;;;;15.56;48.20;96970.73;108800;1254;99129;-83
2024/03/09 11:13:21;;;;;;;11.40;8.70;;;;;;;15.72;48.47;96964.41;108756;1254;95638;-84
2024/03/09 11:15:55;;;;;;;11.10;8.60;;;;;;;15.93;48.40;96958.55;108773;1253;95663;-83
2024/03/09 11:18:23;;;;;;;12.50;9.70;;;;;;;16.13;48.72;96948.96;108848;1253;102075;-84
2024/03/09 11:20:52;;;;;;;11.90;9.40;;;;;;;16.39;48.21;96940.05;108793;1253;100401;-84